Kashiwazaki, Japan
Current Conditions -  °F | °C
As of 12:00 PM on Tuesday 27 Jan 2015 (Local Time) from RJSN Reporting Station
Rain Showers Rain Showers  
Wind Chill: 35°   Ceiling: 3000
Heat Index: 43°   Visibility: 3mi
Dew Point: 39°   Wind: 18mph
Humidity: 87%   Direction: 320°NW
Pressure: 29.91"   Gusts: NA
Location:  37.38°N, 138.57°E
Report Text: RJSN 270300Z 32016KT 5000 -SHRA BR FEW010 SCT015 BKN030 06/04 Q1013
Loading
Personal Weather Stations






























Interactive Weather Map New forecast layout! Learn more

10-Day Weather Forecast

Advertisements
Track Severe Weather on mobile